createdAt,value
2023-03-20T00:00:15.521Z,10.24
2023-03-20T00:01:15.532Z,10.28
2023-03-20T00:02:15.490Z,10.24
2023-03-20T00:03:15.484Z,10.25
2023-03-20T00:04:15.656Z,10.25
2023-03-20T00:05:15.480Z,10.26
2023-03-20T00:06:15.448Z,10.26
2023-03-20T00:07:15.443Z,10.25
2023-03-20T00:08:15.414Z,10.29
2023-03-20T00:09:15.440Z,10.26
2023-03-20T00:10:16.192Z,10.26
2023-03-20T00:11:15.389Z,10.24
2023-03-20T00:12:15.382Z,10.25
2023-03-20T00:13:15.355Z,10.24
2023-03-20T00:14:15.452Z,10.28
2023-03-20T00:15:15.327Z,10.26
2023-03-20T00:16:15.374Z,10.25
2023-03-20T00:17:15.308Z,10.22
2023-03-20T00:18:15.290Z,10.22
2023-03-20T00:19:15.302Z,10.16
2023-03-20T00:20:15.261Z,10.17
2023-03-20T00:21:15.265Z,10.17
2023-03-20T00:22:15.231Z,10.13
2023-03-20T00:23:15.231Z,10.14
2023-03-20T00:24:15.230Z,10.14
2023-03-20T00:25:15.211Z,10.13
2023-03-20T00:26:15.182Z,10.11
2023-03-20T00:27:15.220Z,10.10
2023-03-20T00:28:15.161Z,10.11
2023-03-20T00:29:15.181Z,10.11
2023-03-20T00:30:15.130Z,10.10
2023-03-20T00:31:15.158Z,10.13
2023-03-20T00:32:15.116Z,10.13
2023-03-20T00:33:15.177Z,10.10
2023-03-20T00:34:15.121Z,10.13
2023-03-20T00:35:15.071Z,10.10
2023-03-20T00:36:15.080Z,10.10
2023-03-20T00:37:15.051Z,10.10
2023-03-20T00:38:15.049Z,10.09
2023-03-20T00:39:15.058Z,10.11
2023-03-20T00:40:15.005Z,10.10
2023-03-20T00:41:14.992Z,10.09
2023-03-20T00:42:15.021Z,10.07
2023-03-20T00:43:14.977Z,10.07
2023-03-20T00:44:14.976Z,10.07
2023-03-20T00:45:14.953Z,10.07
2023-03-20T00:46:14.948Z,10.06
2023-03-20T00:47:14.921Z,10.07
2023-03-20T00:48:14.906Z,10.06
2023-03-20T00:49:14.920Z,10.02
2023-03-20T00:50:14.868Z,10.02
2023-03-20T00:51:14.861Z,10.01
2023-03-20T00:52:14.858Z,9.99
2023-03-20T00:53:15.791Z,9.99
2023-03-20T00:54:14.905Z,9.98
2023-03-20T00:55:14.817Z,9.98
2023-03-20T00:56:14.823Z,9.98
2023-03-20T00:57:14.780Z,9.99
2023-03-20T00:58:14.770Z,9.96
2023-03-20T00:59:14.801Z,9.96
2023-03-20T01:00:14.750Z,9.98
2023-03-20T01:01:14.849Z,9.96
2023-03-20T01:02:14.801Z,9.96
2023-03-20T01:03:14.731Z,9.96
2023-03-20T01:04:14.720Z,9.95
2023-03-20T01:05:14.738Z,9.93
2023-03-20T01:06:14.679Z,9.92
2023-03-20T01:07:14.702Z,9.95
2023-03-20T01:08:14.647Z,9.92
2023-03-20T01:09:14.665Z,9.92
2023-03-20T01:10:14.635Z,9.93
2023-03-20T01:11:14.613Z,9.95
2023-03-20T01:12:14.599Z,9.89
2023-03-20T01:13:14.579Z,9.89
2023-03-20T01:14:14.606Z,9.89
2023-03-20T01:15:14.559Z,9.81
2023-03-20T01:16:14.567Z,9.83
2023-03-20T01:17:14.526Z,9.78
2023-03-20T01:18:14.497Z,9.75
2023-03-20T01:19:14.538Z,9.74
2023-03-20T01:20:14.488Z,9.71
2023-03-20T01:21:14.479Z,9.74
2023-03-20T01:22:14.448Z,9.74
2023-03-20T01:23:14.447Z,9.70
2023-03-20T01:24:14.471Z,9.68
2023-03-20T01:25:14.451Z,9.67
2023-03-20T01:26:14.401Z,9.67
2023-03-20T01:27:14.434Z,9.65
2023-03-20T01:28:14.375Z,9.63
2023-03-20T01:29:14.363Z,9.65
2023-03-20T01:30:14.354Z,9.63
2023-03-20T01:31:14.349Z,9.62
2023-03-20T01:32:14.353Z,9.62
2023-03-20T01:33:14.392Z,9.62
2023-03-20T01:34:14.314Z,9.59
2023-03-20T01:35:14.284Z,9.56
2023-03-20T01:36:14.331Z,9.59
2023-03-20T01:37:14.272Z,9.58
2023-03-20T01:38:14.257Z,9.55
2023-03-20T01:39:14.302Z,9.53
2023-03-20T01:40:14.221Z,9.58
2023-03-20T01:41:14.213Z,9.56
2023-03-20T01:42:14.200Z,9.55
2023-03-20T01:43:14.196Z,9.52
2023-03-20T01:44:14.194Z,9.50
2023-03-20T01:45:14.168Z,9.50
2023-03-20T01:46:14.194Z,9.50
2023-03-20T01:47:14.139Z,9.52
2023-03-20T01:48:14.119Z,9.45
2023-03-20T01:49:14.136Z,9.48
2023-03-20T01:50:14.099Z,9.45
2023-03-20T01:51:14.098Z,9.45
2023-03-20T01:52:14.087Z,9.48
2023-03-20T01:53:14.062Z,9.45
2023-03-20T01:54:14.080Z,9.42
2023-03-20T01:55:14.035Z,9.44
2023-03-20T01:56:14.040Z,9.44
2023-03-20T01:57:14.016Z,9.42
2023-03-20T01:58:13.990Z,9.42
2023-03-20T01:59:14.033Z,9.40
2023-03-20T02:00:13.965Z,9.42
2023-03-20T02:01:13.992Z,9.41
2023-03-20T02:02:13.942Z,9.42
2023-03-20T02:03:13.941Z,9.40
2023-03-20T02:04:13.949Z,9.40
2023-03-20T02:05:13.952Z,9.35
2023-03-20T02:06:13.889Z,9.37
2023-03-20T02:07:13.877Z,9.34
2023-03-20T02:08:13.879Z,9.32
2023-03-20T02:09:13.877Z,9.30
2023-03-20T02:10:13.864Z,9.32
2023-03-20T02:11:13.826Z,9.34
2023-03-20T02:12:13.832Z,9.30
2023-03-20T02:13:13.806Z,9.30
2023-03-20T02:14:13.816Z,9.31
2023-03-20T02:15:13.769Z,9.27
2023-03-20T02:16:13.757Z,9.30
2023-03-20T02:17:13.760Z,9.24
2023-03-20T02:18:13.735Z,9.26
2023-03-20T02:19:13.748Z,9.26
2023-03-20T02:20:13.745Z,9.26
2023-03-20T02:21:13.691Z,9.24
2023-03-20T02:22:13.674Z,9.23
2023-03-20T02:23:13.676Z,9.23
2023-03-20T02:24:13.687Z,9.22
2023-03-20T02:25:13.634Z,9.23
2023-03-20T02:26:13.698Z,9.20
2023-03-20T02:27:13.609Z,9.19
2023-03-20T02:28:13.620Z,9.17
2023-03-20T02:29:13.613Z,9.15
2023-03-20T02:30:13.583Z,9.15
2023-03-20T02:31:13.635Z,9.10
2023-03-20T02:32:13.556Z,9.10
2023-03-20T02:33:13.617Z,9.08
2023-03-20T02:34:13.583Z,9.03
2023-03-20T02:35:13.508Z,9.03
2023-03-20T02:36:13.560Z,9.01
2023-03-20T02:37:13.481Z,8.98
2023-03-20T02:38:13.481Z,8.98
2023-03-20T02:39:13.490Z,8.98
2023-03-20T02:40:13.446Z,9.01
2023-03-20T02:41:13.480Z,9.01
2023-03-20T02:42:13.419Z,8.97
2023-03-20T02:43:13.410Z,9.00
2023-03-20T02:44:13.398Z,9.01
2023-03-20T02:45:13.433Z,9.01
2023-03-20T02:46:13.396Z,9.00
2023-03-20T02:47:13.360Z,9.10
2023-03-20T02:48:13.360Z,9.03
2023-03-20T02:49:13.331Z,9.06
2023-03-20T02:50:13.362Z,9.03
2023-03-20T02:51:13.293Z,9.04
2023-03-20T02:52:13.292Z,9.03
2023-03-20T02:53:13.281Z,9.04
2023-03-20T02:54:13.278Z,9.06
2023-03-20T02:55:13.294Z,9.12
2023-03-20T02:56:13.263Z,9.06
2023-03-20T02:57:13.224Z,9.13
2023-03-20T02:58:13.208Z,9.12
2023-03-20T02:59:13.203Z,9.10
2023-03-20T03:00:13.232Z,9.08
2023-03-20T03:01:13.188Z,9.12
2023-03-20T03:02:13.162Z,9.04
2023-03-20T03:03:13.157Z,9.04
2023-03-20T03:04:13.137Z,9.01
2023-03-20T03:05:13.152Z,9.01
2023-03-20T03:06:13.111Z,9.00
2023-03-20T03:07:13.092Z,8.98
2023-03-20T03:08:13.086Z,9.00
2023-03-20T03:09:13.081Z,9.01
2023-03-20T03:10:13.095Z,9.00
2023-03-20T03:11:13.041Z,9.01
2023-03-20T03:12:13.034Z,8.98
2023-03-20T03:13:13.021Z,8.96
2023-03-20T03:14:13.006Z,8.97
2023-03-20T03:15:13.022Z,8.97
2023-03-20T03:16:13.002Z,9.00
2023-03-20T03:17:12.973Z,9.01
2023-03-20T03:18:12.958Z,8.97
2023-03-20T03:19:12.941Z,9.01
2023-03-20T03:20:12.967Z,9.01
2023-03-20T03:21:12.913Z,8.97
2023-03-20T03:22:12.924Z,8.98
2023-03-20T03:23:12.905Z,9.00
2023-03-20T03:24:12.885Z,8.96
2023-03-20T03:25:12.906Z,8.97
2023-03-20T03:26:12.856Z,8.98
2023-03-20T03:27:12.840Z,8.94
2023-03-20T03:28:12.828Z,8.97
2023-03-20T03:29:12.813Z,8.93
2023-03-20T03:30:12.838Z,8.94
2023-03-20T03:31:12.814Z,8.93
2023-03-20T03:32:12.774Z,8.96
2023-03-20T03:33:12.844Z,8.94
2023-03-20T03:34:12.763Z,8.91
2023-03-20T03:35:12.769Z,8.94
2023-03-20T03:36:12.780Z,8.94
2023-03-20T03:37:12.717Z,8.91
2023-03-20T03:38:12.700Z,8.96
2023-03-20T03:39:12.683Z,8.97
2023-03-20T03:40:12.706Z,8.97
2023-03-20T03:41:12.662Z,8.97
2023-03-20T03:42:12.659Z,9.00
2023-03-20T03:43:12.638Z,8.97
2023-03-20T03:44:12.618Z,8.98
2023-03-20T03:45:12.697Z,8.98
2023-03-20T03:46:12.687Z,9.00
2023-03-20T03:47:12.600Z,8.98
2023-03-20T03:48:12.587Z,8.97
2023-03-20T03:49:12.556Z,9.01
2023-03-20T03:50:12.641Z,9.01
2023-03-20T03:51:12.528Z,8.96
2023-03-20T03:52:12.516Z,9.01
2023-03-20T03:53:12.508Z,9.00
2023-03-20T03:54:12.505Z,9.01
2023-03-20T03:55:12.495Z,9.00
2023-03-20T03:56:12.549Z,8.97
2023-03-20T03:57:12.444Z,8.98
2023-03-20T03:58:12.438Z,9.03
2023-03-20T03:59:12.422Z,9.00
2023-03-20T04:00:12.439Z,9.03
2023-03-20T04:01:12.398Z,8.97
2023-03-20T04:02:12.425Z,8.97
2023-03-20T04:03:12.380Z,8.98
2023-03-20T04:04:12.395Z,8.94
2023-03-20T04:05:12.383Z,8.88
2023-03-20T04:06:12.343Z,8.91
2023-03-20T04:07:12.337Z,8.91
2023-03-20T04:08:12.339Z,8.89
2023-03-20T04:09:12.306Z,8.89
2023-03-20T04:10:12.311Z,8.83
2023-03-20T04:11:13.064Z,8.85
2023-03-20T04:12:12.259Z,8.83
2023-03-20T04:13:12.250Z,8.82
2023-03-20T04:14:12.231Z,8.78
2023-03-20T04:15:12.255Z,8.79
2023-03-20T04:16:12.243Z,8.78
2023-03-20T04:17:12.199Z,8.78
2023-03-20T04:18:12.184Z,8.78
2023-03-20T04:19:12.172Z,8.76
2023-03-20T04:20:12.203Z,8.73
2023-03-20T04:21:12.164Z,8.70
2023-03-20T04:22:12.131Z,8.71
2023-03-20T04:23:12.132Z,8.65
2023-03-20T04:24:12.108Z,8.68
2023-03-20T04:25:12.122Z,8.65
2023-03-20T04:26:12.095Z,8.68
2023-03-20T04:27:12.081Z,8.64
2023-03-20T04:28:12.072Z,8.60
2023-03-20T04:29:12.044Z,8.58
2023-03-20T04:30:12.076Z,8.60
2023-03-20T04:31:12.028Z,8.58
2023-03-20T04:32:12.000Z,8.55
2023-03-20T04:33:12.098Z,8.55
2023-03-20T04:34:11.981Z,8.61
2023-03-20T04:35:12.001Z,8.61
2023-03-20T04:36:12.045Z,8.58
2023-03-20T04:37:11.952Z,8.61
2023-03-20T04:38:11.965Z,8.60
2023-03-20T04:39:11.909Z,8.55
2023-03-20T04:40:11.927Z,8.60
2023-03-20T04:41:11.915Z,8.60
2023-03-20T04:42:11.876Z,8.61
2023-03-20T04:43:11.858Z,8.54
2023-03-20T04:44:11.856Z,8.54
2023-03-20T04:45:11.887Z,8.55
2023-03-20T04:46:11.853Z,8.60
2023-03-20T04:47:11.810Z,8.58
2023-03-20T04:48:11.799Z,8.61
2023-03-20T04:49:11.790Z,8.61
2023-03-20T04:50:11.800Z,8.58
2023-03-20T04:51:11.764Z,8.57
2023-03-20T04:52:11.748Z,8.54
2023-03-20T04:53:11.736Z,8.52
2023-03-20T04:54:11.717Z,8.52
2023-03-20T04:55:11.734Z,8.47
2023-03-20T04:56:11.705Z,8.49
2023-03-20T04:57:11.685Z,8.42
2023-03-20T04:58:11.672Z,8.40
2023-03-20T04:59:11.652Z,8.37
2023-03-20T05:00:11.680Z,8.37
2023-03-20T05:01:11.618Z,8.27
2023-03-20T05:02:11.609Z,8.22
2023-03-20T05:03:11.610Z,8.21
2023-03-20T05:04:11.606Z,8.18
2023-03-20T05:05:11.549Z,8.14
2023-03-20T05:06:11.558Z,8.07
2023-03-20T05:07:11.551Z,8.06
2023-03-20T05:08:11.548Z,8.00
2023-03-20T05:09:11.487Z,8.03
2023-03-20T05:10:11.560Z,8.06
2023-03-20T05:11:11.495Z,7.95
2023-03-20T05:12:11.437Z,7.96
2023-03-20T05:13:11.437Z,7.95
2023-03-20T05:14:11.416Z,7.96
2023-03-20T05:15:11.417Z,8.02
2023-03-20T05:16:11.414Z,7.95
2023-03-20T05:17:11.355Z,7.96
2023-03-20T05:18:11.364Z,7.89
2023-03-20T05:19:11.331Z,7.89
2023-03-20T05:20:11.374Z,7.91
2023-03-20T05:21:11.323Z,7.88
2023-03-20T05:22:11.315Z,7.92
2023-03-20T05:23:11.311Z,7.85
2023-03-20T05:24:11.272Z,7.91
2023-03-20T05:25:11.261Z,7.88
2023-03-20T05:26:11.272Z,7.89
2023-03-20T05:27:11.227Z,7.99
2023-03-20T05:28:11.221Z,7.99
2023-03-20T05:29:11.207Z,7.89
2023-03-20T05:30:11.197Z,7.91
2023-03-20T05:31:11.263Z,7.96
2023-03-20T05:32:11.185Z,7.95
2023-03-20T05:33:11.312Z,7.89
2023-03-20T05:34:11.146Z,7.89
2023-03-20T05:35:11.125Z,7.94
2023-03-20T05:36:11.187Z,7.92
2023-03-20T05:37:11.102Z,7.89
2023-03-20T05:38:11.097Z,7.89
2023-03-20T05:39:11.085Z,7.95
2023-03-20T05:40:11.094Z,8.00
2023-03-20T05:41:11.093Z,8.02
2023-03-20T05:42:11.030Z,8.03
2023-03-20T05:43:11.031Z,7.95
2023-03-20T05:44:11.010Z,7.95
2023-03-20T05:45:11.008Z,7.95
2023-03-20T05:46:11.066Z,7.94
2023-03-20T05:47:10.960Z,7.95
2023-03-20T05:48:10.965Z,7.99
2023-03-20T05:49:10.940Z,8.02
2023-03-20T05:50:10.949Z,8.03
2023-03-20T05:51:10.952Z,7.91
2023-03-20T05:52:10.909Z,7.99
2023-03-20T05:53:10.943Z,7.96
2023-03-20T05:54:10.887Z,7.96
2023-03-20T05:55:10.869Z,7.96
2023-03-20T05:56:10.889Z,7.95
2023-03-20T05:57:10.838Z,8.03
2023-03-20T05:58:10.830Z,7.95
2023-03-20T05:59:10.814Z,8.02
2023-03-20T06:00:10.797Z,8.04
2023-03-20T06:01:10.852Z,8.07
2023-03-20T06:02:10.844Z,8.00
2023-03-20T06:03:10.814Z,8.03
2023-03-20T06:04:10.755Z,8.03
2023-03-20T06:05:10.740Z,8.04
2023-03-20T06:06:10.752Z,8.02
2023-03-20T06:07:10.711Z,8.06
2023-03-20T06:08:10.702Z,8.04
2023-03-20T06:09:10.683Z,8.04
2023-03-20T06:10:10.697Z,8.04
2023-03-20T06:11:10.698Z,8.13
2023-03-20T06:12:10.653Z,8.10
2023-03-20T06:13:10.638Z,8.04
2023-03-20T06:14:10.626Z,8.06
2023-03-20T06:15:10.900Z,8.10
2023-03-20T06:16:10.707Z,8.04
2023-03-20T06:17:10.604Z,8.12
2023-03-20T06:18:10.573Z,8.12
2023-03-20T06:19:10.566Z,8.07
2023-03-20T06:20:10.562Z,8.12
2023-03-20T06:21:10.615Z,8.09
2023-03-20T06:22:10.521Z,8.07
2023-03-20T06:23:10.517Z,8.09
2023-03-20T06:24:10.492Z,8.13
2023-03-20T06:25:10.482Z,8.14
2023-03-20T06:26:10.529Z,8.13
2023-03-20T06:27:10.463Z,8.12
2023-03-20T06:28:10.440Z,8.09
2023-03-20T06:29:10.441Z,8.18
2023-03-20T06:30:10.441Z,8.12
2023-03-20T06:31:10.445Z,8.20
2023-03-20T06:32:10.388Z,8.17
2023-03-20T06:33:10.450Z,8.12
2023-03-20T06:34:10.358Z,8.17
2023-03-20T06:35:10.363Z,8.21
2023-03-20T06:36:10.342Z,8.20
2023-03-20T06:37:11.279Z,8.21
2023-03-20T06:38:10.335Z,8.22
2023-03-20T06:39:10.296Z,8.18
2023-03-20T06:40:10.289Z,8.18
2023-03-20T06:41:10.266Z,8.17
2023-03-20T06:42:10.254Z,8.18
2023-03-20T06:43:10.275Z,8.27
2023-03-20T06:44:10.271Z,8.28
2023-03-20T06:45:10.510Z,8.27
2023-03-20T06:46:10.246Z,8.32
2023-03-20T06:47:10.183Z,8.29
2023-03-20T06:48:10.216Z,8.32
2023-03-20T06:49:10.179Z,8.32
2023-03-20T06:50:10.168Z,8.31
2023-03-20T06:51:10.174Z,8.36
2023-03-20T06:52:10.120Z,8.32
2023-03-20T06:53:10.126Z,8.24
2023-03-20T06:54:10.107Z,8.32
2023-03-20T06:55:10.094Z,8.32
2023-03-20T06:56:10.111Z,8.32
2023-03-20T06:57:10.083Z,8.39
2023-03-20T06:58:10.052Z,8.39
2023-03-20T06:59:10.049Z,8.43
2023-03-20T07:00:10.033Z,8.47
2023-03-20T07:01:10.060Z,8.52
2023-03-20T07:02:10.172Z,8.46
2023-03-20T07:03:09.990Z,8.45
2023-03-20T07:04:09.986Z,8.46
2023-03-20T07:05:10.008Z,8.45
2023-03-20T07:06:09.976Z,8.49
2023-03-20T07:07:10.018Z,8.49
2023-03-20T07:08:09.955Z,8.43
2023-03-20T07:09:09.939Z,8.45
2023-03-20T07:10:09.896Z,8.47
2023-03-20T07:11:09.911Z,8.50
2023-03-20T07:12:09.932Z,8.47
2023-03-20T07:13:09.857Z,8.49
2023-03-20T07:14:09.842Z,8.46
2023-03-20T07:15:09.896Z,8.45
2023-03-20T07:16:09.888Z,8.40
2023-03-20T07:17:09.819Z,8.37
2023-03-20T07:18:09.791Z,8.39
2023-03-20T07:19:09.788Z,8.46
2023-03-20T07:20:09.760Z,8.42
2023-03-20T07:21:09.800Z,8.43
2023-03-20T07:22:09.737Z,8.40
2023-03-20T07:23:09.762Z,8.40
2023-03-20T07:24:09.733Z,8.50
2023-03-20T07:25:09.720Z,8.43
2023-03-20T07:26:09.722Z,8.46
2023-03-20T07:27:09.695Z,8.49
2023-03-20T07:28:09.683Z,8.43
2023-03-20T07:29:09.668Z,8.52
2023-03-20T07:30:09.651Z,8.47
2023-03-20T07:31:09.746Z,8.55
2023-03-20T07:32:09.610Z,8.60
2023-03-20T07:33:09.818Z,8.61
2023-03-20T07:34:09.592Z,8.63
2023-03-20T07:35:09.577Z,8.70
2023-03-20T07:36:09.612Z,8.63
2023-03-20T07:37:09.556Z,8.67
2023-03-20T07:38:09.538Z,8.65
2023-03-20T07:39:09.532Z,8.64
2023-03-20T07:40:09.521Z,8.43
2023-03-20T07:41:09.525Z,8.46
2023-03-20T07:42:09.476Z,8.40
2023-03-20T07:43:09.477Z,8.42
2023-03-20T07:44:09.458Z,8.45
2023-03-20T07:45:09.442Z,8.42
2023-03-20T07:46:09.542Z,8.45
2023-03-20T07:47:09.507Z,8.39
2023-03-20T07:48:09.439Z,8.43
2023-03-20T07:49:09.393Z,8.40
2023-03-20T07:50:09.373Z,8.42
2023-03-20T07:51:09.411Z,8.52
2023-03-20T07:52:09.359Z,8.57
2023-03-20T07:53:09.340Z,8.61
2023-03-20T07:54:09.322Z,8.63
2023-03-20T07:55:09.341Z,8.65
2023-03-20T07:56:09.350Z,8.75
2023-03-20T07:57:09.293Z,8.75
2023-03-20T07:58:09.268Z,8.88
2023-03-20T07:59:09.260Z,9.10
2023-03-20T08:00:09.268Z,9.15
2023-03-20T08:01:09.340Z,9.27
2023-03-20T08:02:09.220Z,9.40
2023-03-20T08:03:09.453Z,9.53
2023-03-20T08:04:09.276Z,9.56
2023-03-20T08:05:09.189Z,9.55
2023-03-20T08:06:09.200Z,9.56
2023-03-20T08:07:09.162Z,9.48
2023-03-20T08:08:09.169Z,9.45
2023-03-20T08:09:09.128Z,9.40
2023-03-20T08:10:09.118Z,9.35
2023-03-20T08:11:09.137Z,9.22
2023-03-20T08:12:09.090Z,9.17
2023-03-20T08:13:09.094Z,9.13
2023-03-20T08:14:09.059Z,8.98
2023-03-20T08:15:09.068Z,9.00
2023-03-20T08:16:09.124Z,9.06
2023-03-20T08:17:14.973Z,9.15
2023-03-20T08:18:10.026Z,9.17
2023-03-20T08:19:09.006Z,9.27
2023-03-20T08:20:08.999Z,9.49
2023-03-20T08:21:09.051Z,9.65
2023-03-20T08:22:08.964Z,9.74
2023-03-20T08:23:08.957Z,10.01
2023-03-20T08:24:08.948Z,10.34
2023-03-20T08:25:08.931Z,10.63
2023-03-20T08:26:08.945Z,10.87
2023-03-20T08:27:08.904Z,10.94
2023-03-20T08:28:08.897Z,10.91
2023-03-20T08:29:08.874Z,10.80
2023-03-20T08:30:09.018Z,10.65
2023-03-20T08:31:08.910Z,10.28
2023-03-20T08:32:08.838Z,10.01
2023-03-20T08:33:08.847Z,9.75
2023-03-20T08:34:08.802Z,9.71
2023-03-20T08:35:14.144Z,9.63
2023-03-20T08:36:09.863Z,9.67
2023-03-20T08:37:08.779Z,9.65
2023-03-20T08:38:08.762Z,9.68
2023-03-20T08:39:08.757Z,9.56
2023-03-20T08:40:08.834Z,9.59
2023-03-20T08:41:08.752Z,9.62
2023-03-20T08:42:08.706Z,9.62
2023-03-20T08:43:08.708Z,9.60
2023-03-20T08:44:08.685Z,9.62
2023-03-20T08:45:08.674Z,9.58
2023-03-20T08:46:08.726Z,9.65
2023-03-20T08:47:08.647Z,9.60
2023-03-20T08:48:08.629Z,9.50
2023-03-20T08:49:08.621Z,9.49
2023-03-20T08:50:08.610Z,9.38
2023-03-20T08:51:08.620Z,9.34
2023-03-20T08:52:08.571Z,9.26
2023-03-20T08:53:08.562Z,9.23
2023-03-20T08:54:08.547Z,9.27
2023-03-20T08:55:08.529Z,9.23
2023-03-20T08:56:08.680Z,9.24
2023-03-20T08:57:08.544Z,9.34
2023-03-20T08:58:08.501Z,9.41
2023-03-20T08:59:08.479Z,9.42
2023-03-20T09:00:08.458Z,9.48
2023-03-20T09:01:08.596Z,9.48
2023-03-20T09:02:08.578Z,9.45
2023-03-20T09:03:08.502Z,9.44
2023-03-20T09:04:08.437Z,9.81
2023-03-20T09:05:08.407Z,10.31
2023-03-20T09:06:08.385Z,10.35
2023-03-20T09:07:08.602Z,10.52
2023-03-20T09:08:08.371Z,10.51
2023-03-20T09:09:08.364Z,10.49
2023-03-20T09:10:08.346Z,10.43
2023-03-20T09:11:08.332Z,10.46
2023-03-20T09:12:08.340Z,10.62
2023-03-20T09:13:25.679Z,10.90
2023-03-20T09:14:09.276Z,11.13
2023-03-20T09:15:08.320Z,11.08
2023-03-20T09:16:08.299Z,11.31
2023-03-20T09:17:08.276Z,11.17
2023-03-20T09:18:08.243Z,10.94
2023-03-20T09:19:08.225Z,10.88
2023-03-20T09:20:08.208Z,10.90
2023-03-20T09:21:08.219Z,10.95
2023-03-20T09:22:08.208Z,11.21
2023-03-20T09:23:08.176Z,11.16
2023-03-20T09:24:08.202Z,11.24
2023-03-20T09:25:08.146Z,11.38
2023-03-20T09:26:08.125Z,11.63
2023-03-20T09:27:08.150Z,11.70
2023-03-20T09:28:08.102Z,11.82
2023-03-20T09:29:08.117Z,11.85
2023-03-20T09:30:08.081Z,11.77
2023-03-20T09:31:08.089Z,11.63
2023-03-20T09:32:08.078Z,11.38
2023-03-20T09:33:08.091Z,11.35
2023-03-20T09:34:08.033Z,11.38
2023-03-20T09:35:08.015Z,11.59
2023-03-20T09:36:08.055Z,11.54
2023-03-20T09:37:08.025Z,11.56
2023-03-20T09:38:07.981Z,11.27
2023-03-20T09:39:07.970Z,11.39
2023-03-20T09:40:07.939Z,11.63
2023-03-20T09:41:07.944Z,11.63
2023-03-20T09:42:07.969Z,11.62
2023-03-20T09:43:07.918Z,11.54
2023-03-20T09:44:07.901Z,11.45
2023-03-20T09:45:07.889Z,11.35
2023-03-20T09:46:07.887Z,11.41
2023-03-20T09:47:19.461Z,11.38
2023-03-20T09:48:08.842Z,11.35
2023-03-20T09:49:07.838Z,11.19
2023-03-20T09:50:07.830Z,10.95
2023-03-20T09:51:07.862Z,10.75
2023-03-20T09:52:07.808Z,10.63
2023-03-20T09:53:07.787Z,10.62
2023-03-20T09:54:07.765Z,10.58
2023-03-20T09:55:07.793Z,10.43
2023-03-20T09:56:07.755Z,10.36
2023-03-20T09:57:07.759Z,10.42
2023-03-20T09:58:07.707Z,10.49
2023-03-20T09:59:07.743Z,10.54
2023-03-20T10:00:07.687Z,10.57
2023-03-20T10:01:07.679Z,10.46
2023-03-20T10:02:07.746Z,10.35
2023-03-20T10:03:07.670Z,10.39
2023-03-20T10:04:07.708Z,10.52
2023-03-20T10:05:07.631Z,10.46
2023-03-20T10:06:07.636Z,10.38
2023-03-20T10:07:07.896Z,10.31
2023-03-20T10:08:07.576Z,10.28
2023-03-20T10:09:07.575Z,10.26
2023-03-20T10:10:07.572Z,10.31
2023-03-20T10:11:07.556Z,10.28
2023-03-20T10:12:07.561Z,10.24
2023-03-20T10:13:07.543Z,10.24
2023-03-20T10:14:07.506Z,10.17
2023-03-20T10:15:07.497Z,10.17
2023-03-20T10:16:07.514Z,10.14
2023-03-20T10:17:07.514Z,10.18
2023-03-20T10:18:07.464Z,10.25
2023-03-20T10:19:07.453Z,10.26
2023-03-20T10:20:07.488Z,10.20
2023-03-20T10:21:07.421Z,10.16
2023-03-20T10:22:07.425Z,10.14
2023-03-20T10:23:07.413Z,10.24
2023-03-20T10:24:07.367Z,10.32
2023-03-20T10:25:07.405Z,10.43
2023-03-20T10:26:07.337Z,10.39
2023-03-20T10:27:07.360Z,10.36
2023-03-20T10:28:07.316Z,10.31
2023-03-20T10:29:07.312Z,10.32
2023-03-20T10:30:07.346Z,10.26
2023-03-20T10:31:07.322Z,10.26
2023-03-20T10:32:07.325Z,10.17
2023-03-20T10:33:07.316Z,10.24
2023-03-20T10:34:07.236Z,10.31
2023-03-20T10:35:07.247Z,10.26
2023-03-20T10:36:07.260Z,10.20
2023-03-20T10:37:07.241Z,10.10
2023-03-20T10:38:07.194Z,10.04
2023-03-20T10:39:07.175Z,10.09
2023-03-20T10:40:07.166Z,10.01
2023-03-20T10:41:07.149Z,10.09
2023-03-20T10:42:07.180Z,10.20
2023-03-20T10:43:07.142Z,10.31
2023-03-20T10:44:07.115Z,10.32
2023-03-20T10:45:07.106Z,10.43
2023-03-20T10:46:07.084Z,10.51
2023-03-20T10:47:07.277Z,10.52
2023-03-20T10:48:07.067Z,10.49
2023-03-20T10:49:07.045Z,10.47
2023-03-20T10:50:07.071Z,10.46
2023-03-20T10:51:07.033Z,10.58
2023-03-20T10:52:07.032Z,10.63
2023-03-20T10:53:06.994Z,10.75
2023-03-20T10:54:06.985Z,10.84
2023-03-20T10:55:06.965Z,10.91
2023-03-20T10:56:06.967Z,10.87
2023-03-20T10:57:07.245Z,10.81
2023-03-20T10:58:07.015Z,10.78
2023-03-20T10:59:06.914Z,10.75
2023-03-20T11:00:06.914Z,10.76
2023-03-20T11:01:06.953Z,10.88
2023-03-20T11:02:06.908Z,10.87
2023-03-20T11:03:06.895Z,10.95
2023-03-20T11:04:06.921Z,11.01
2023-03-20T11:05:06.910Z,11.06
2023-03-20T11:06:10.164Z,11.19
2023-03-20T11:07:06.848Z,11.28
2023-03-20T11:08:06.817Z,11.44
2023-03-20T11:09:06.789Z,11.62
2023-03-20T11:10:06.784Z,11.84
2023-03-20T11:11:06.763Z,11.88
2023-03-20T11:12:06.786Z,11.90
2023-03-20T11:13:06.741Z,11.75
2023-03-20T11:14:06.727Z,11.77
2023-03-20T11:15:06.727Z,11.81
2023-03-20T11:16:06.708Z,11.75
2023-03-20T11:17:06.786Z,11.77
2023-03-20T11:18:06.680Z,11.87
2023-03-20T11:19:06.659Z,11.98
2023-03-20T11:20:06.692Z,12.04
2023-03-20T11:21:06.636Z,12.11
2023-03-20T11:22:06.654Z,11.90
2023-03-20T11:23:06.647Z,11.54
2023-03-20T11:24:06.619Z,11.17
2023-03-20T11:25:06.581Z,10.94
2023-03-20T11:26:06.610Z,10.78
2023-03-20T11:27:06.594Z,10.73
2023-03-20T11:28:06.570Z,10.75
2023-03-20T11:29:06.521Z,10.80
2023-03-20T11:30:06.524Z,10.91
2023-03-20T11:31:06.512Z,11.05
2023-03-20T11:32:06.600Z,11.20
2023-03-20T11:33:06.481Z,11.38
2023-03-20T11:34:06.468Z,11.46
2023-03-20T11:35:06.451Z,11.36
2023-03-20T11:36:06.542Z,11.46
2023-03-20T11:37:10.540Z,11.51
2023-03-20T11:38:06.408Z,11.46
2023-03-20T11:39:06.399Z,11.57
2023-03-20T11:40:06.384Z,11.53
2023-03-20T11:41:06.371Z,11.54
2023-03-20T11:42:06.396Z,11.57
2023-03-20T11:43:06.354Z,11.51
2023-03-20T11:44:06.346Z,11.39
2023-03-20T11:45:06.323Z,11.41
2023-03-20T11:46:06.369Z,11.38
2023-03-20T11:47:06.295Z,11.45
2023-03-20T11:48:06.322Z,11.53
2023-03-20T11:49:06.263Z,11.56
2023-03-20T11:50:06.254Z,11.62
2023-03-20T11:51:06.246Z,11.42
2023-03-20T11:52:06.226Z,11.39
2023-03-20T11:53:06.234Z,11.46
2023-03-20T11:54:06.194Z,11.53
2023-03-20T11:55:06.188Z,11.57
2023-03-20T11:56:06.184Z,11.46
2023-03-20T11:57:06.160Z,11.54
2023-03-20T11:58:06.457Z,11.72
2023-03-20T11:59:06.133Z,11.90
2023-03-20T12:00:06.124Z,11.97
2023-03-20T12:01:06.108Z,12.01
2023-03-20T12:02:06.138Z,11.96
2023-03-20T12:03:06.130Z,11.84
2023-03-20T12:04:06.079Z,11.78
2023-03-20T12:05:06.048Z,11.77
2023-03-20T12:06:06.048Z,11.67
2023-03-20T12:07:06.038Z,11.66
2023-03-20T12:08:06.055Z,11.69
2023-03-20T12:09:06.024Z,11.79
2023-03-20T12:10:05.997Z,11.84
2023-03-20T12:11:05.979Z,11.88
2023-03-20T12:12:05.969Z,11.82
2023-03-20T12:13:05.978Z,11.88
2023-03-20T12:14:05.956Z,11.93
2023-03-20T12:15:05.942Z,12.07
2023-03-20T12:16:05.966Z,12.23
2023-03-20T12:17:05.909Z,12.25
2023-03-20T12:18:05.921Z,12.13
2023-03-20T12:19:05.870Z,11.96
2023-03-20T12:20:05.868Z,11.84
2023-03-20T12:21:06.052Z,11.69
2023-03-20T12:22:05.839Z,11.66
2023-03-20T12:23:05.861Z,11.72
2023-03-20T12:24:05.819Z,11.77
2023-03-20T12:25:05.800Z,11.77
2023-03-20T12:26:05.790Z,11.77
2023-03-20T12:27:05.768Z,11.75
2023-03-20T12:28:05.807Z,11.75
2023-03-20T12:29:05.748Z,11.79
2023-03-20T12:30:05.757Z,11.87
2023-03-20T12:31:05.781Z,11.96
2023-03-20T12:32:05.921Z,12.01
2023-03-20T12:33:05.818Z,11.88
2023-03-20T12:34:05.695Z,11.75
2023-03-20T12:35:05.669Z,11.69
2023-03-20T12:36:05.675Z,11.72
2023-03-20T12:37:05.647Z,11.82
2023-03-20T12:38:05.660Z,11.75
2023-03-20T12:39:05.621Z,11.74
2023-03-20T12:40:05.620Z,11.67
2023-03-20T12:41:05.590Z,11.67
2023-03-20T12:42:05.571Z,11.67
2023-03-20T12:43:05.599Z,11.66
2023-03-20T12:44:05.579Z,11.69
2023-03-20T12:45:05.541Z,11.74
2023-03-20T12:46:05.609Z,11.84
2023-03-20T12:47:05.511Z,12.13
2023-03-20T12:48:05.529Z,12.43
2023-03-20T12:49:05.632Z,12.63
2023-03-20T12:50:05.484Z,12.80
2023-03-20T12:51:05.464Z,12.74
2023-03-20T12:52:05.452Z,12.85
2023-03-20T12:53:05.515Z,12.79
2023-03-20T12:54:05.431Z,12.73
2023-03-20T12:55:05.415Z,12.77
2023-03-20T12:56:05.402Z,12.79
2023-03-20T12:57:05.381Z,12.77
2023-03-20T12:58:05.407Z,12.76
2023-03-20T12:59:05.403Z,12.61
2023-03-20T13:00:05.418Z,12.41
2023-03-20T13:01:05.339Z,12.26
2023-03-20T13:02:05.385Z,12.18
2023-03-20T13:03:05.402Z,12.11
2023-03-20T13:04:05.289Z,11.98
2023-03-20T13:05:05.283Z,11.98
2023-03-20T13:06:05.276Z,11.82
2023-03-20T13:07:07.428Z,11.74
2023-03-20T13:08:05.283Z,11.77